createdAt,value
2022-12-26T00:00:27.625Z,3.78
2022-12-26T00:02:54.397Z,2.72
2022-12-26T00:05:21.057Z,2.47
2022-12-26T00:07:47.665Z,3.42
2022-12-26T00:10:16.981Z,3.28
2022-12-26T00:12:43.554Z,3.05
2022-12-26T00:15:10.432Z,3.40
2022-12-26T00:17:37.048Z,3.05
2022-12-26T00:20:04.265Z,3.60
2022-12-26T00:22:30.999Z,3.50
2022-12-26T00:24:57.577Z,3.83
2022-12-26T00:27:24.171Z,3.67
2022-12-26T00:29:51.017Z,3.45
2022-12-26T00:32:17.597Z,3.88
2022-12-26T00:34:44.141Z,3.97
2022-12-26T00:37:10.733Z,3.92
2022-12-26T00:39:37.254Z,3.70
2022-12-26T00:42:03.924Z,2.88
2022-12-26T00:44:30.492Z,4.22
2022-12-26T00:46:57.136Z,3.42
2022-12-26T00:49:23.811Z,4.07
2022-12-26T00:51:50.333Z,4.20
2022-12-26T00:54:16.877Z,3.13
2022-12-26T00:56:43.468Z,3.33
2022-12-26T00:59:10.002Z,5.18
2022-12-26T01:01:36.738Z,3.92
2022-12-26T01:04:04.812Z,3.97
2022-12-26T01:06:31.491Z,4.13
2022-12-26T01:08:59.458Z,3.67
2022-12-26T01:11:42.805Z,2.78
2022-12-26T01:14:12.985Z,2.05
2022-12-26T01:16:41.083Z,3.17
2022-12-26T01:19:07.767Z,3.47
2022-12-26T01:21:34.489Z,3.38
2022-12-26T01:24:01.690Z,2.53
2022-12-26T01:26:28.314Z,3.08
2022-12-26T01:28:54.955Z,3.42
2022-12-26T01:31:23.039Z,2.08
2022-12-26T01:33:49.985Z,2.35
2022-12-26T01:36:17.403Z,2.60
2022-12-26T01:38:44.323Z,3.55
2022-12-26T01:41:17.530Z,2.22
2022-12-26T01:43:59.421Z,3.03
2022-12-26T01:46:31.263Z,1.90
2022-12-26T01:49:01.757Z,1.67
2022-12-26T01:51:33.474Z,1.85
2022-12-26T01:54:39.565Z,3.53
2022-12-26T01:56:49.552Z,3.03
2022-12-26T01:59:21.949Z,1.95
2022-12-26T02:01:51.523Z,2.47
2022-12-26T02:04:42.106Z,3.35
2022-12-26T02:07:09.294Z,2.80
2022-12-26T02:09:37.034Z,2.75
2022-12-26T02:12:36.139Z,3.25
2022-12-26T02:15:15.791Z,1.75
2022-12-26T02:17:43.648Z,0.98
2022-12-26T02:20:18.893Z,2.13
2022-12-26T02:22:57.491Z,3.45
2022-12-26T02:26:02.043Z,2.03
2022-12-26T02:28:48.590Z,0.85
2022-12-26T02:31:19.835Z,2.53
2022-12-26T02:34:02.593Z,1.65
2022-12-26T02:36:34.906Z,2.08
2022-12-26T02:39:44.723Z,2.40
2022-12-26T02:42:28.436Z,1.98
2022-12-26T02:45:33.165Z,1.45
2022-12-26T02:48:34.814Z,1.90
2022-12-26T02:51:52.389Z,1.77
2022-12-26T02:54:46.524Z,1.13
2022-12-26T02:57:37.689Z,1.30
2022-12-26T03:00:30.082Z,1.60
2022-12-26T03:03:38.387Z,2.05
2022-12-26T03:06:37.027Z,1.73
2022-12-26T03:09:32.355Z,1.27
2022-12-26T03:12:27.153Z,1.60
2022-12-26T03:15:06.749Z,1.92
2022-12-26T03:17:44.309Z,2.00
2022-12-26T03:20:17.585Z,2.03
2022-12-26T03:22:54.689Z,2.40
2022-12-26T03:26:01.314Z,1.38
2022-12-26T03:28:28.324Z,1.08
2022-12-26T03:30:57.757Z,1.45
2022-12-26T03:33:44.823Z,1.58
2022-12-26T03:36:55.654Z,1.17
2022-12-26T03:40:00.382Z,1.80
2022-12-26T03:42:58.087Z,1.92
2022-12-26T03:45:57.528Z,1.33
2022-12-26T03:49:06.442Z,1.50
2022-12-26T03:52:01.442Z,1.25
2022-12-26T03:55:11.185Z,1.70
2022-12-26T03:58:04.536Z,1.35
2022-12-26T04:00:52.247Z,1.42
2022-12-26T04:03:40.404Z,2.00
2022-12-26T04:06:35.184Z,1.95
2022-12-26T04:09:35.284Z,3.53
2022-12-26T04:12:21.161Z,1.45
2022-12-26T04:15:17.134Z,1.42
2022-12-26T04:18:12.040Z,2.05
2022-12-26T04:20:53.418Z,1.42
2022-12-26T04:24:04.810Z,1.73
2022-12-26T04:27:02.486Z,1.40
2022-12-26T04:29:48.296Z,2.35
2022-12-26T04:32:48.430Z,2.95
2022-12-26T04:35:50.461Z,1.40
2022-12-26T04:38:39.738Z,2.78
2022-12-26T04:41:27.193Z,1.85
2022-12-26T04:44:14.695Z,2.17
2022-12-26T04:46:45.223Z,2.78
2022-12-26T04:49:32.974Z,3.55
2022-12-26T04:52:02.349Z,1.83
2022-12-26T04:54:29.237Z,2.55
2022-12-26T04:56:56.048Z,3.08
2022-12-26T04:59:23.542Z,3.20
2022-12-26T05:02:09.031Z,2.72
2022-12-26T05:04:55.158Z,2.13
2022-12-26T05:07:47.636Z,1.50
2022-12-26T05:10:24.038Z,2.03
2022-12-26T05:12:51.332Z,2.05
2022-12-26T05:15:18.492Z,2.10
2022-12-26T05:18:04.070Z,2.83
2022-12-26T05:20:49.425Z,2.88
2022-12-26T05:23:42.227Z,1.25
2022-12-26T05:26:37.050Z,1.70
2022-12-26T05:29:04.047Z,3.17
2022-12-26T05:31:35.473Z,3.58
2022-12-26T05:34:10.666Z,3.33
2022-12-26T05:36:56.572Z,2.15
2022-12-26T05:39:23.369Z,1.58
2022-12-26T05:41:50.008Z,1.95
2022-12-26T05:44:17.010Z,3.35
2022-12-26T05:46:43.702Z,2.03
2022-12-26T05:49:10.497Z,2.95
2022-12-26T05:51:37.194Z,1.27
2022-12-26T05:54:04.459Z,2.53
2022-12-26T05:56:31.166Z,2.05
2022-12-26T05:59:01.428Z,1.50
2022-12-26T06:01:29.060Z,2.17
2022-12-26T06:03:58.665Z,2.25
2022-12-26T06:06:26.172Z,3.03
2022-12-26T06:08:54.484Z,3.13
2022-12-26T06:11:22.890Z,2.08
2022-12-26T06:13:49.451Z,2.80
2022-12-26T06:16:18.356Z,2.33
2022-12-26T06:18:45.372Z,1.98
2022-12-26T06:21:14.643Z,3.50
2022-12-26T06:23:41.397Z,2.47
2022-12-26T06:26:10.021Z,3.45
2022-12-26T06:28:37.249Z,3.00
2022-12-26T06:31:14.704Z,2.65
2022-12-26T06:33:42.021Z,2.00
2022-12-26T06:36:11.431Z,2.55
2022-12-26T06:38:44.189Z,2.53
2022-12-26T06:41:13.604Z,2.10
2022-12-26T06:43:42.374Z,2.20
2022-12-26T06:46:13.633Z,3.10
2022-12-26T06:48:40.366Z,3.88
2022-12-26T06:51:12.505Z,2.55
2022-12-26T06:53:39.923Z,2.78
2022-12-26T06:56:24.288Z,2.30
2022-12-26T06:58:54.874Z,2.30
2022-12-26T07:01:22.827Z,3.97
2022-12-26T07:03:52.057Z,3.30
2022-12-26T07:06:38.454Z,3.50
2022-12-26T07:09:10.050Z,3.42
2022-12-26T07:11:38.868Z,2.50
2022-12-26T07:14:06.271Z,2.67
2022-12-26T07:16:40.361Z,2.40
2022-12-26T07:19:07.504Z,4.18
2022-12-26T07:21:40.134Z,2.95
2022-12-26T07:24:13.753Z,2.65
2022-12-26T07:26:40.272Z,3.08
2022-12-26T07:29:06.918Z,3.65
2022-12-26T07:31:33.533Z,2.38
2022-12-26T07:34:00.153Z,4.10
2022-12-26T07:36:27.126Z,2.47
2022-12-26T07:38:54.032Z,3.38
2022-12-26T07:41:39.561Z,3.05
2022-12-26T07:44:06.648Z,3.08
2022-12-26T07:46:33.768Z,3.50
2022-12-26T07:49:00.666Z,3.70
2022-12-26T07:51:27.490Z,4.10
2022-12-26T07:53:54.252Z,3.90
2022-12-26T07:56:20.855Z,2.88
2022-12-26T07:58:51.773Z,2.72
2022-12-26T08:01:19.064Z,3.50
2022-12-26T08:03:48.481Z,4.55
2022-12-26T08:06:15.329Z,3.53
2022-12-26T08:08:48.548Z,4.18
2022-12-26T08:11:20.256Z,3.97
2022-12-26T08:13:47.024Z,3.75
2022-12-26T08:16:14.981Z,3.90
2022-12-26T08:18:41.890Z,3.83
2022-12-26T08:21:09.195Z,4.28
2022-12-26T08:23:35.827Z,4.55
2022-12-26T08:26:11.284Z,4.20
2022-12-26T08:28:38.925Z,4.13
2022-12-26T08:31:07.708Z,3.80
2022-12-26T08:33:35.664Z,5.10
2022-12-26T08:36:07.251Z,3.92
2022-12-26T08:38:35.329Z,4.05
2022-12-26T08:41:02.285Z,3.75
2022-12-26T08:43:53.159Z,3.50
2022-12-26T08:46:16.690Z,4.22
2022-12-26T08:48:43.719Z,4.75
2022-12-26T08:51:14.465Z,4.30
2022-12-26T08:53:41.960Z,5.40
2022-12-26T08:56:13.596Z,3.63
2022-12-26T08:58:40.291Z,4.75
2022-12-26T09:01:15.833Z,4.88
2022-12-26T09:03:43.337Z,5.75
2022-12-26T09:06:12.187Z,5.25
2022-12-26T09:08:40.096Z,4.28
2022-12-26T09:11:13.660Z,4.38
2022-12-26T09:13:42.523Z,5.75
2022-12-26T09:16:10.556Z,4.50
2022-12-26T09:18:37.862Z,5.80
2022-12-26T09:21:07.063Z,5.13
2022-12-26T09:23:35.119Z,4.28
2022-12-26T09:26:20.851Z,4.93
2022-12-26T09:28:48.095Z,4.78
2022-12-26T09:31:17.240Z,5.57
2022-12-26T09:33:44.822Z,5.78
2022-12-26T09:36:15.165Z,5.03
2022-12-26T09:38:42.746Z,5.43
2022-12-26T09:41:28.270Z,7.22
2022-12-26T09:44:25.714Z,5.80
2022-12-26T09:47:08.174Z,4.57
2022-12-26T09:49:37.700Z,4.57
2022-12-26T09:52:15.788Z,4.95
2022-12-26T09:54:56.238Z,5.72
2022-12-26T09:57:41.594Z,4.35
2022-12-26T10:00:19.628Z,5.78
2022-12-26T10:02:51.474Z,4.57
2022-12-26T10:05:19.539Z,5.50
2022-12-26T10:07:57.339Z,5.35
2022-12-26T10:10:37.269Z,4.43
2022-12-26T10:13:18.004Z,4.65
2022-12-26T10:16:16.675Z,4.80
2022-12-26T10:19:02.268Z,5.28
2022-12-26T10:21:40.749Z,5.18
2022-12-26T10:24:15.601Z,4.55
2022-12-26T10:26:49.802Z,3.88
2022-12-26T10:29:24.067Z,4.57
2022-12-26T10:31:59.164Z,4.05
2022-12-26T10:34:37.509Z,4.88
2022-12-26T10:37:24.073Z,3.83
2022-12-26T10:40:02.071Z,5.80
2022-12-26T10:42:37.261Z,5.20
2022-12-26T10:45:26.954Z,4.82
2022-12-26T10:47:54.598Z,5.18
2022-12-26T10:50:27.594Z,3.95
2022-12-26T10:52:56.055Z,4.97
2022-12-26T10:55:31.557Z,5.03
2022-12-26T10:58:21.447Z,5.35
2022-12-26T11:00:48.316Z,4.45
2022-12-26T11:03:18.620Z,5.82
2022-12-26T11:06:07.130Z,4.30
2022-12-26T11:08:46.542Z,4.20
2022-12-26T11:11:45.732Z,4.82
2022-12-26T11:14:44.608Z,3.63
2022-12-26T11:17:24.600Z,3.72
2022-12-26T11:20:24.297Z,4.15
2022-12-26T11:22:51.835Z,4.55
2022-12-26T11:25:24.243Z,4.78
2022-12-26T11:27:57.351Z,4.53
2022-12-26T11:30:33.132Z,4.45
2022-12-26T11:33:15.234Z,5.13
2022-12-26T11:35:48.821Z,5.18
2022-12-26T11:38:40.630Z,3.92
2022-12-26T11:41:31.659Z,5.03
2022-12-26T11:44:10.369Z,4.68
2022-12-26T11:46:54.973Z,4.13
2022-12-26T11:49:24.330Z,4.90
2022-12-26T11:51:58.895Z,4.28
2022-12-26T11:54:33.956Z,3.78
2022-12-26T11:57:17.048Z,4.38
2022-12-26T11:59:44.277Z,4.47
2022-12-26T12:02:20.373Z,3.83
2022-12-26T12:04:49.031Z,4.25
2022-12-26T12:07:28.357Z,4.18
2022-12-26T12:10:03.216Z,5.28
2022-12-26T12:13:02.537Z,4.22
2022-12-26T12:15:41.978Z,3.90
2022-12-26T12:18:19.619Z,2.83
2022-12-26T12:21:14.279Z,3.67
2022-12-26T12:24:18.593Z,3.60
2022-12-26T12:27:04.927Z,3.60
2022-12-26T12:29:50.452Z,3.13
2022-12-26T12:32:43.453Z,2.92
2022-12-26T12:35:18.969Z,3.42
2022-12-26T12:38:18.288Z,3.33
2022-12-26T12:40:57.877Z,3.72
2022-12-26T12:43:52.442Z,3.08
2022-12-26T12:46:40.080Z,3.47
2022-12-26T12:49:39.513Z,3.45
2022-12-26T12:52:41.925Z,2.83
2022-12-26T12:55:17.426Z,2.67
2022-12-26T12:57:56.155Z,2.38
2022-12-26T13:00:27.842Z,1.55
2022-12-26T13:03:26.125Z,1.77
2022-12-26T13:05:52.830Z,2.15
2022-12-26T13:08:31.757Z,2.03
2022-12-26T13:11:05.732Z,1.92
2022-12-26T13:13:42.301Z,1.63
2022-12-26T13:16:18.578Z,1.33
2022-12-26T13:19:03.067Z,1.23
2022-12-26T13:21:35.080Z,0.90
2022-12-26T13:24:23.846Z,0.35
2022-12-26T13:26:58.699Z,0.57
2022-12-26T13:29:31.392Z,0.25
2022-12-26T13:31:59.379Z,0.30
2022-12-26T13:34:26.893Z,0.65
2022-12-26T13:36:55.832Z,0.43
2022-12-26T13:39:27.957Z,0.17
2022-12-26T13:42:20.883Z,0.10
2022-12-26T13:44:53.302Z,0.95
2022-12-26T13:47:38.612Z,0.05
2022-12-26T13:50:44.536Z,0.05
2022-12-26T13:53:26.404Z,0.40
2022-12-26T13:55:55.842Z,0.20
2022-12-26T13:58:59.710Z,0.40
2022-12-26T14:01:36.163Z,0.98
2022-12-26T14:04:11.946Z,0.45
2022-12-26T14:07:04.977Z,0.40
2022-12-26T14:10:04.367Z,0.55
2022-12-26T14:12:36.084Z,1.15
2022-12-26T14:15:24.551Z,0.15
2022-12-26T14:18:03.160Z,0.25
2022-12-26T14:20:41.212Z,0.20
2022-12-26T14:23:40.119Z,1.20
2022-12-26T14:26:40.800Z,0.15
2022-12-26T14:29:13.336Z,0.13
2022-12-26T14:31:52.062Z,0.35
2022-12-26T14:34:47.334Z,0.60
2022-12-26T14:37:33.733Z,0.28
2022-12-26T14:40:27.569Z,0.40
2022-12-26T14:43:12.056Z,0.70
2022-12-26T14:45:42.654Z,0.28
2022-12-26T14:48:15.346Z,0.70
2022-12-26T14:51:15.282Z,0.75
2022-12-26T14:53:43.309Z,0.10
2022-12-26T14:56:14.264Z,0.45
2022-12-26T14:58:45.449Z,1.25
2022-12-26T15:01:15.688Z,0.35
2022-12-26T15:04:13.959Z,0.43
2022-12-26T15:07:01.209Z,0.10
2022-12-26T15:09:33.627Z,0.20
2022-12-26T15:12:39.124Z,0.00
2022-12-26T15:15:38.252Z,1.00
2022-12-26T15:18:29.729Z,0.85
2022-12-26T15:21:12.233Z,0.93
2022-12-26T15:24:01.206Z,0.95
2022-12-26T15:26:48.383Z,0.20
2022-12-26T15:29:32.017Z,0.17
2022-12-26T15:32:04.236Z,0.38
2022-12-26T15:34:47.509Z,0.70
2022-12-26T15:37:17.272Z,0.20
2022-12-26T15:40:14.760Z,0.63
2022-12-26T15:42:53.397Z,1.55
2022-12-26T15:45:26.190Z,0.20
2022-12-26T15:48:26.893Z,0.22
2022-12-26T15:51:07.359Z,0.90
2022-12-26T15:53:55.800Z,1.25
2022-12-26T15:56:51.943Z,0.82
2022-12-26T15:59:50.790Z,0.77
2022-12-26T16:02:26.867Z,0.93
2022-12-26T16:05:01.827Z,1.98
2022-12-26T16:07:44.023Z,0.22
2022-12-26T16:10:25.886Z,0.70
2022-12-26T16:13:22.735Z,0.85
2022-12-26T16:15:58.124Z,0.80
2022-12-26T16:18:32.905Z,0.82
2022-12-26T16:21:25.104Z,0.85
2022-12-26T16:23:53.954Z,0.40
2022-12-26T16:26:32.484Z,0.93
2022-12-26T16:29:00.966Z,0.80
2022-12-26T16:31:30.998Z,0.63
2022-12-26T16:33:59.553Z,0.60
2022-12-26T16:36:28.752Z,0.20
2022-12-26T16:38:56.003Z,1.50
2022-12-26T16:41:25.732Z,1.20
2022-12-26T16:43:54.455Z,1.20
2022-12-26T16:46:28.725Z,0.75
2022-12-26T16:49:00.904Z,1.13
2022-12-26T16:51:42.178Z,1.92
2022-12-26T16:54:16.139Z,1.20
2022-12-26T16:56:43.572Z,1.95
2022-12-26T16:59:22.467Z,0.70
2022-12-26T17:01:54.865Z,1.85
2022-12-26T17:04:24.245Z,1.17
2022-12-26T17:06:57.414Z,0.60
2022-12-26T17:09:27.414Z,0.77
2022-12-26T17:11:58.723Z,1.10
2022-12-26T17:14:33.416Z,0.32
2022-12-26T17:17:05.820Z,1.17
2022-12-26T17:19:36.142Z,1.38
2022-12-26T17:22:15.035Z,1.20
2022-12-26T17:24:44.448Z,0.68
2022-12-26T17:27:23.574Z,0.70
2022-12-26T17:29:54.953Z,1.05
2022-12-26T17:32:27.624Z,0.40
2022-12-26T17:34:54.434Z,0.43
2022-12-26T17:37:27.394Z,0.80
2022-12-26T17:40:07.574Z,1.17
2022-12-26T17:42:52.812Z,1.35
2022-12-26T17:45:25.717Z,0.15
2022-12-26T17:47:54.152Z,0.88
2022-12-26T17:50:21.968Z,1.02
2022-12-26T17:52:48.969Z,0.38
2022-12-26T17:55:24.911Z,1.13
2022-12-26T17:57:52.452Z,0.40
2022-12-26T18:00:23.087Z,0.80
2022-12-26T18:02:50.142Z,0.93
2022-12-26T18:05:17.984Z,0.60
2022-12-26T18:07:46.174Z,0.80
2022-12-26T18:10:24.434Z,0.32
2022-12-26T18:12:52.216Z,0.38
2022-12-26T18:15:20.075Z,0.65
2022-12-26T18:17:49.030Z,1.05
2022-12-26T18:20:25.692Z,0.10
2022-12-26T18:22:52.968Z,1.05
2022-12-26T18:25:22.975Z,0.68
2022-12-26T18:27:50.355Z,0.43
2022-12-26T18:30:25.244Z,0.75
2022-12-26T18:32:53.306Z,0.80
2022-12-26T18:35:20.788Z,0.80
2022-12-26T18:37:50.343Z,1.00
2022-12-26T18:40:38.350Z,0.52
2022-12-26T18:43:06.849Z,0.43
2022-12-26T18:45:34.746Z,1.02
2022-12-26T18:48:02.127Z,1.30
2022-12-26T18:50:30.275Z,0.47
2022-12-26T18:52:57.225Z,1.55
2022-12-26T18:55:25.393Z,0.45
2022-12-26T18:57:52.713Z,0.10
2022-12-26T19:00:21.195Z,0.52
2022-12-26T19:02:48.362Z,0.73
2022-12-26T19:05:21.797Z,0.32
2022-12-26T19:07:50.050Z,0.85
2022-12-26T19:10:19.168Z,1.27
2022-12-26T19:12:46.186Z,0.52
2022-12-26T19:15:15.022Z,0.28
2022-12-26T19:17:43.622Z,1.85
2022-12-26T19:20:27.385Z,1.90
2022-12-26T19:22:54.832Z,0.40
2022-12-26T19:25:23.666Z,1.20
2022-12-26T19:27:50.587Z,0.68
2022-12-26T19:30:18.532Z,0.40
2022-12-26T19:32:46.187Z,0.75
2022-12-26T19:35:15.735Z,1.38
2022-12-26T19:37:49.399Z,0.85
2022-12-26T19:40:25.127Z,0.17
2022-12-26T19:42:54.862Z,1.45
2022-12-26T19:45:32.648Z,0.77
2022-12-26T19:48:05.263Z,0.68
2022-12-26T19:51:02.307Z,0.40
2022-12-26T19:53:29.271Z,1.15
2022-12-26T19:55:56.379Z,0.90
2022-12-26T19:58:24.878Z,0.20
2022-12-26T20:00:51.734Z,0.75
2022-12-26T20:03:18.704Z,0.15
2022-12-26T20:05:45.494Z,0.22
2022-12-26T20:08:12.806Z,0.93
2022-12-26T20:10:39.597Z,0.50
2022-12-26T20:13:06.567Z,1.10
2022-12-26T20:15:34.954Z,0.95
2022-12-26T20:18:02.020Z,0.70
2022-12-26T20:20:29.129Z,1.45
2022-12-26T20:22:55.915Z,1.40
2022-12-26T20:25:22.645Z,0.73
2022-12-26T20:27:49.660Z,0.25
2022-12-26T20:30:18.753Z,1.27
2022-12-26T20:32:47.264Z,0.70
2022-12-26T20:35:14.523Z,0.43
2022-12-26T20:37:41.542Z,0.13
2022-12-26T20:40:08.596Z,0.20
2022-12-26T20:42:35.366Z,1.02
2022-12-26T20:45:02.547Z,0.30
2022-12-26T20:47:30.684Z,0.70
2022-12-26T20:49:57.412Z,1.75
2022-12-26T20:52:24.447Z,2.45
2022-12-26T20:54:51.259Z,0.30
2022-12-26T20:57:18.000Z,0.57
2022-12-26T20:59:44.876Z,0.43
2022-12-26T21:02:13.433Z,1.00
2022-12-26T21:04:40.564Z,0.63
2022-12-26T21:07:08.704Z,0.35
2022-12-26T21:09:36.218Z,0.30
2022-12-26T21:12:06.157Z,0.20
2022-12-26T21:14:33.014Z,0.98
2022-12-26T21:16:59.705Z,0.55
2022-12-26T21:19:29.159Z,0.73
2022-12-26T21:21:56.512Z,0.38
2022-12-26T21:24:29.561Z,1.52
2022-12-26T21:26:57.040Z,0.57
2022-12-26T21:29:27.285Z,0.25
2022-12-26T21:31:55.237Z,1.23
2022-12-26T21:34:24.706Z,1.38
2022-12-26T21:37:10.374Z,1.08
2022-12-26T21:39:38.243Z,0.88
2022-12-26T21:42:06.504Z,0.85
2022-12-26T21:44:33.521Z,0.63
2022-12-26T21:47:00.470Z,0.40
2022-12-26T21:49:27.364Z,0.05
2022-12-26T21:51:53.933Z,0.10
2022-12-26T21:54:44.855Z,0.38
2022-12-26T21:57:15.209Z,0.30
2022-12-26T21:59:56.790Z,0.32
2022-12-26T22:02:53.671Z,0.43
2022-12-26T22:05:24.141Z,1.35
2022-12-26T22:07:58.983Z,0.57
2022-12-26T22:10:47.734Z,1.27
2022-12-26T22:13:14.874Z,0.40
2022-12-26T22:16:05.438Z,0.57
2022-12-26T22:18:33.871Z,0.73
2022-12-26T22:21:15.674Z,0.20
2022-12-26T22:23:45.033Z,0.20
2022-12-26T22:26:14.441Z,0.43
2022-12-26T22:28:42.566Z,1.08
2022-12-26T22:31:22.866Z,0.55
2022-12-26T22:33:55.203Z,0.10
2022-12-26T22:36:23.225Z,0.15
2022-12-26T22:38:50.019Z,0.35
2022-12-26T22:41:17.270Z,0.50
2022-12-26T22:43:44.731Z,0.20
2022-12-26T22:46:12.897Z,1.48
2022-12-26T22:48:39.836Z,0.20
2022-12-26T22:51:06.935Z,0.28
2022-12-26T22:53:33.642Z,0.22
2022-12-26T22:56:05.396Z,0.93
2022-12-26T22:58:33.108Z,0.25
2022-12-26T23:01:00.307Z,0.98
2022-12-26T23:03:28.151Z,0.80
2022-12-26T23:05:55.620Z,0.73
2022-12-26T23:08:25.323Z,0.47
2022-12-26T23:10:54.712Z,0.30
2022-12-26T23:13:21.820Z,1.20
2022-12-26T23:16:28.320Z,0.85
2022-12-26T23:19:19.203Z,0.20
2022-12-26T23:21:50.238Z,0.30
2022-12-26T23:24:22.674Z,0.38
2022-12-26T23:27:20.161Z,0.10
2022-12-26T23:30:06.197Z,0.40
2022-12-26T23:32:33.981Z,0.73
2022-12-26T23:35:02.944Z,0.68
2022-12-26T23:37:29.482Z,0.30
2022-12-26T23:39:56.317Z,0.43
2022-12-26T23:42:22.971Z,0.38
2022-12-26T23:44:49.587Z,0.65
2022-12-26T23:47:16.123Z,0.20
2022-12-26T23:49:42.704Z,0.10
2022-12-26T23:52:09.739Z,0.65
2022-12-26T23:54:36.597Z,0.55
2022-12-26T23:57:03.156Z,0.40
2022-12-26T23:59:29.763Z,0.00
